Time;durP1;ratioP1;P1;durP2;ratioP2;P2;SDS_P1;SDS_P2;PMS_P1;PMS_P2;Temp;Humidity;BMP_temperature;BMP_pressure;BME280_temperature;BME280_humidity;BME280_pressure;Samples;Min_cycle;Max_cycle;Signal;HPM_P1;HPM_P2
2023/09/26 00:02:07;;;;;;;0.10;0.10;;;;;;;11.35;87.37;101383.81;5035100;28;19931;-70
2023/09/26 00:04:33;;;;;;;0.10;0.10;;;;;;;11.36;87.89;101388.22;5044712;28;20042;-69
2023/09/26 00:07:02;;;;;;;0.10;0.10;;;;;;;11.32;88.31;101387.91;5025785;28;20044;-70
2023/09/26 00:09:30;;;;;;;0.10;0.10;;;;;;;11.28;87.93;101385.88;5041740;28;20047;-70
2023/09/26 00:11:56;;;;;;;0.10;0.10;;;;;;;11.27;88.42;101389.69;5036230;28;20172;-69
2023/09/26 00:14:24;;;;;;;0.10;0.10;;;;;;;11.21;88.69;101392.28;5032679;28;20049;-69
2023/09/26 00:16:49;;;;;;;;;;;;;;;11.19;88.76;101399.91;5026003;28;20493;-69
2023/09/26 00:19:16;;;;;;;0.10;0.10;;;;;;;11.16;88.70;101405.03;5013458;28;20019;-69
2023/09/26 00:21:43;;;;;;;0.10;0.10;;;;;;;11.09;88.59;101387.91;5038750;28;20081;-69
2023/09/26 00:24:09;;;;;;;0.10;0.10;;;;;;;11.12;88.87;101395.63;5026828;28;20060;-69
2023/09/26 00:26:35;;;;;;;0.10;0.10;;;;;;;11.10;88.88;101406.00;5018310;28;20044;-70
2023/09/26 00:29:02;;;;;;;0.10;0.10;;;;;;;11.07;89.08;101399.94;5040575;28;20091;-69
2023/09/26 00:31:30;;;;;;;0.10;0.10;;;;;;;11.09;89.11;101398.84;5021192;28;20045;-69
2023/09/26 00:33:57;;;;;;;0.10;0.10;;;;;;;11.09;89.55;101402.44;4997069;28;20055;-69
2023/09/26 00:36:23;;;;;;;0.10;0.10;;;;;;;11.08;89.91;101395.28;5024187;28;20069;-69
2023/09/26 00:38:49;;;;;;;0.00;0.00;;;;;;;11.09;90.05;101401.59;5045607;28;20500;-67
2023/09/26 00:41:15;;;;;;;0.10;0.10;;;;;;;11.09;90.08;101407.91;5025255;28;20084;-68
2023/09/26 00:43:41;;;;;;;0.10;0.10;;;;;;;11.07;90.42;101407.28;5046228;28;20118;-69
2023/09/26 00:46:10;;;;;;;0.10;0.10;;;;;;;11.01;90.94;101400.91;5011576;28;20045;-70
2023/09/26 00:48:39;;;;;;;0.10;0.10;;;;;;;11.03;91.30;101406.13;5013944;28;20515;-70
2023/09/26 00:51:06;;;;;;;0.10;0.10;;;;;;;11.00;91.14;101398.38;5043840;28;20056;-69
2023/09/26 00:53:34;;;;;;;0.10;0.10;;;;;;;11.04;90.42;101407.78;5027447;28;20041;-69
2023/09/26 00:56:01;;;;;;;0.10;0.10;;;;;;;11.02;90.68;101404.47;5034860;28;20077;-69
2023/09/26 00:58:29;;;;;;;0.10;0.10;;;;;;;10.96;90.39;101392.56;5009681;28;20045;-69
2023/09/26 01:00:58;;;;;;;0.10;0.10;;;;;;;11.00;90.31;101401.13;5027877;28;20073;-69
2023/09/26 01:03:24;;;;;;;0.10;0.10;;;;;;;10.98;90.57;101406.00;5029288;28;20127;-69
2023/09/26 01:05:52;;;;;;;0.10;0.10;;;;;;;10.96;90.58;101408.16;5005382;28;20076;-68
2023/09/26 01:08:20;;;;;;;0.10;0.10;;;;;;;10.92;91.11;101410.53;5030016;28;20045;-69
2023/09/26 01:10:47;;;;;;;0.10;0.10;;;;;;;10.88;91.34;101410.16;4995784;28;20068;-69
2023/09/26 01:13:13;;;;;;;0.10;0.10;;;;;;;10.84;91.37;101411.72;5027110;28;20059;-68
2023/09/26 01:15:41;;;;;;;0.10;0.10;;;;;;;10.83;91.52;101409.19;5028132;28;20090;-68
2023/09/26 01:18:08;;;;;;;0.10;0.10;;;;;;;10.82;91.37;101404.81;5039050;28;20055;-69
2023/09/26 01:20:37;;;;;;;0.10;0.10;;;;;;;10.80;91.65;101409.69;5027928;28;20049;-68
2023/09/26 01:23:06;;;;;;;0.10;0.10;;;;;;;10.80;91.75;101407.78;5025283;28;20072;-67
2023/09/26 01:25:34;;;;;;;0.10;0.10;;;;;;;10.80;91.81;101413.28;5043595;28;20362;-68
2023/09/26 01:28:07;;;;;;;0.10;0.10;;;;;;;10.79;91.87;101411.59;5026780;28;20052;-68
2023/09/26 01:30:33;;;;;;;0.10;0.10;;;;;;;10.78;91.63;101415.41;5025127;28;20056;-68
2023/09/26 01:32:59;;;;;;;0.10;0.10;;;;;;;10.80;91.22;101412.41;5025333;28;20049;-70
2023/09/26 01:35:26;;;;;;;0.10;0.10;;;;;;;10.80;90.83;101405.06;5041997;28;20052;-69
2023/09/26 01:37:52;;;;;;;0.10;0.10;;;;;;;10.80;90.89;101410.53;5047083;28;20531;-69
2023/09/26 01:40:19;;;;;;;0.10;0.10;;;;;;;10.76;91.18;101407.44;5047821;28;20164;-68
2023/09/26 01:42:47;;;;;;;0.10;0.10;;;;;;;10.60;91.37;101386.25;5025419;28;20045;-69
2023/09/26 01:45:14;;;;;;;0.10;0.10;;;;;;;10.72;91.67;101406.25;5011423;28;20103;-69
2023/09/26 01:47:43;;;;;;;0.10;0.10;;;;;;;10.73;92.06;101409.78;5012684;28;20044;-69
2023/09/26 01:50:10;;;;;;;0.00;0.00;;;;;;;10.74;91.96;101408.72;5043534;28;20068;-70
2023/09/26 01:52:36;;;;;;;0.10;0.10;;;;;;;10.72;91.94;101403.50;5044843;28;20049;-68
2023/09/26 01:55:03;;;;;;;0.10;0.10;;;;;;;10.66;92.13;101400.88;5015437;28;20053;-69
2023/09/26 01:57:29;;;;;;;0.10;0.10;;;;;;;10.69;92.14;101408.63;5013244;28;20094;-69
2023/09/26 02:00:00;;;;;;;0.10;0.10;;;;;;;10.67;92.25;101405.28;5030212;28;20052;-69
2023/09/26 02:02:26;;;;;;;0.10;0.10;;;;;;;10.48;92.25;101386.25;5046154;28;20274;-69
2023/09/26 02:04:52;;;;;;;0.10;0.10;;;;;;;10.63;92.50;101411.22;5038386;28;20128;-69
2023/09/26 02:07:18;;;;;;;0.10;0.10;;;;;;;10.59;92.43;101406.47;5041175;28;20508;-69
2023/09/26 02:09:44;;;;;;;0.10;0.10;;;;;;;10.46;92.46;101377.44;5010297;28;20048;-69
2023/09/26 02:12:10;;;;;;;0.10;0.10;;;;;;;10.59;92.66;101406.47;5042262;28;20072;-69
2023/09/26 02:14:39;;;;;;;0.10;0.10;;;;;;;10.55;92.35;101410.75;5002856;28;20198;-69
2023/09/26 02:17:11;;;;;;;0.10;0.10;;;;;;;10.48;92.35;101411.66;5042194;28;20545;-68
2023/09/26 02:19:39;;;;;;;0.10;0.10;;;;;;;10.48;92.30;101414.41;5045818;28;20048;-69
2023/09/26 02:22:05;;;;;;;0.10;0.10;;;;;;;10.47;92.31;101412.75;4986223;28;20045;-70
2023/09/26 02:24:52;;;;;;;0.10;0.10;;;;;;;10.46;91.99;101404.78;5029375;28;20107;-69
2023/09/26 02:27:19;;;;;;;;;;;;;;;10.44;91.59;101407.75;5039648;28;20234;-70
2023/09/26 02:29:46;;;;;;;0.10;0.10;;;;;;;10.42;91.77;101406.28;5011050;28;19924;-70
2023/09/26 02:32:14;;;;;;;0.10;0.10;;;;;;;10.35;91.95;101401.75;5025880;28;20056;-70
2023/09/26 02:34:40;;;;;;;;;;;;;;;10.39;92.10;101409.47;5022979;28;20042;-70
2023/09/26 02:37:06;;;;;;;0.10;0.10;;;;;;;10.35;91.68;101409.94;5013468;28;19932;-67
2023/09/26 02:39:32;;;;;;;0.00;0.00;;;;;;;10.36;91.90;101411.63;5031105;28;20076;-69
2023/09/26 02:41:59;;;;;;;0.10;0.10;;;;;;;10.38;92.20;101413.28;5036162;28;20056;-69
2023/09/26 02:44:25;;;;;;;0.10;0.10;;;;;;;10.36;92.30;101414.34;5024618;28;20042;-70
2023/09/26 02:46:52;;;;;;;0.10;0.10;;;;;;;10.33;92.82;101414.81;5037767;28;20041;-69
2023/09/26 02:49:19;;;;;;;0.20;0.20;;;;;;;10.31;93.20;101416.97;5038995;28;20045;-69
2023/09/26 02:51:45;;;;;;;;;;;;;;;10.29;93.34;101412.78;5012695;28;20521;-69
2023/09/26 02:54:11;;;;;;;0.10;0.10;;;;;;;10.29;92.64;101415.53;5022548;28;19933;-68
2023/09/26 02:56:38;;;;;;;0.00;0.00;;;;;;;10.27;92.36;101423.94;5025590;28;20495;-68
2023/09/26 02:59:04;;;;;;;0.10;0.10;;;;;;;10.26;92.64;101424.19;5014163;28;20543;-68
2023/09/26 03:01:32;;;;;;;0.10;0.10;;;;;;;10.25;92.76;101419.78;5018593;28;20575;-69
2023/09/26 03:03:58;;;;;;;0.10;0.10;;;;;;;10.24;92.88;101418.94;5004412;28;20216;-69
2023/09/26 03:06:25;;;;;;;0.10;0.10;;;;;;;10.27;93.03;101425.84;5025421;28;20183;-68
2023/09/26 03:08:51;;;;;;;;;;;;;;;10.25;93.09;101426.06;5013387;28;20049;-67
2023/09/26 03:11:17;;;;;;;0.10;0.10;;;;;;;10.24;93.28;101427.16;5004196;28;19932;-69
2023/09/26 03:13:43;;;;;;;0.10;0.10;;;;;;;10.25;93.06;101428.81;5037612;28;20040;-69
2023/09/26 03:16:13;;;;;;;0.10;0.10;;;;;;;10.19;93.26;101427.84;5029632;28;20078;-69
2023/09/26 03:18:40;;;;;;;0.10;0.10;;;;;;;10.23;93.45;101432.88;5031615;28;20447;-69
2023/09/26 03:21:07;;;;;;;0.10;0.10;;;;;;;10.23;93.38;101433.69;5042621;28;20512;-70
2023/09/26 03:23:35;;;;;;;0.10;0.10;;;;;;;10.24;93.49;101442.72;5025599;28;20076;-70
2023/09/26 03:26:01;;;;;;;0.10;0.10;;;;;;;10.24;93.58;101440.00;5040748;28;20080;-70
2023/09/26 03:28:28;;;;;;;0.10;0.10;;;;;;;10.22;93.67;101445.69;5004739;28;20124;-69
2023/09/26 03:30:54;;;;;;;0.10;0.10;;;;;;;10.26;93.70;101444.16;4994196;28;20429;-70
2023/09/26 03:33:20;;;;;;;0.10;0.10;;;;;;;10.28;93.66;101442.00;5036424;28;20084;-69
2023/09/26 03:35:47;;;;;;;0.10;0.10;;;;;;;10.32;93.53;101445.13;5012651;28;20270;-70
2023/09/26 03:38:13;;;;;;;0.10;0.10;;;;;;;10.35;93.55;101436.44;5009050;28;20044;-68
2023/09/26 03:40:40;;;;;;;0.10;0.10;;;;;;;10.36;93.29;101449.91;5024155;28;20063;-69
2023/09/26 03:43:07;;;;;;;0.10;0.10;;;;;;;10.39;92.83;101453.22;5042265;28;20091;-69
2023/09/26 03:45:33;;;;;;;0.10;0.10;;;;;;;10.44;92.36;101453.38;5039914;28;20045;-70
2023/09/26 03:47:59;;;;;;;0.10;0.10;;;;;;;10.47;92.40;101447.47;5017506;28;20042;-69
2023/09/26 03:50:25;;;;;;;0.10;0.10;;;;;;;10.08;92.28;101374.81;5005693;28;20433;-68
2023/09/26 03:52:51;;;;;;;0.10;0.10;;;;;;;10.63;91.88;101451.41;5023766;28;20099;-70
2023/09/26 03:55:17;;;;;;;0.10;0.10;;;;;;;10.70;91.45;101449.41;5023733;28;20049;-70
2023/09/26 03:57:47;;;;;;;0.10;0.10;;;;;;;10.78;90.88;101449.06;5034839;28;20047;-70
2023/09/26 04:00:16;;;;;;;0.10;0.10;;;;;;;10.85;90.59;101459.91;5026121;28;20055;-69
2023/09/26 04:02:43;;;;;;;0.10;0.10;;;;;;;10.92;90.40;101452.41;5017653;28;20045;-69
2023/09/26 04:05:09;;;;;;;0.10;0.10;;;;;;;11.01;89.82;101458.38;5033131;28;20068;-70
2023/09/26 04:07:36;;;;;;;0.10;0.10;;;;;;;11.04;89.13;101449.69;5043631;28;20053;-70
2023/09/26 04:10:05;;;;;;;0.10;0.10;;;;;;;11.06;88.48;101453.00;5022169;28;20045;-70
2023/09/26 04:12:32;;;;;;;0.10;0.10;;;;;;;11.10;87.55;101455.28;5013080;28;20052;-70
2023/09/26 04:14:59;;;;;;;0.10;0.10;;;;;;;11.09;87.13;101453.59;5039364;28;20094;-70
2023/09/26 04:17:25;;;;;;;;;;;;;;;11.11;87.10;101455.03;5040390;28;20044;-69
2023/09/26 04:19:51;;;;;;;0.10;0.10;;;;;;;11.12;86.44;101459.44;5016757;28;20404;-69
2023/09/26 04:22:18;;;;;;;0.10;0.10;;;;;;;11.18;86.16;101466.69;5026281;28;20045;-70
2023/09/26 04:24:45;;;;;;;0.10;0.10;;;;;;;11.20;86.47;101461.00;5024340;28;20147;-70
2023/09/26 04:27:11;;;;;;;0.10;0.10;;;;;;;11.30;86.47;101463.13;5019473;28;20053;-69
2023/09/26 04:29:37;;;;;;;0.10;0.10;;;;;;;11.38;86.07;101470.97;5041186;28;20414;-71
2023/09/26 04:32:05;;;;;;;0.10;0.10;;;;;;;11.45;85.63;101474.44;5017394;28;20140;-71
2023/09/26 04:34:32;;;;;;;0.10;0.10;;;;;;;11.48;85.23;101471.19;4995328;28;20671;-71
2023/09/26 04:36:58;;;;;;;0.10;0.10;;;;;;;11.47;84.74;101480.50;5031947;28;20068;-70
2023/09/26 04:39:25;;;;;;;0.10;0.10;;;;;;;11.51;84.31;101474.53;5032557;28;20060;-70
2023/09/26 04:41:51;;;;;;;0.17;0.17;;;;;;;11.55;83.99;101479.28;5015653;28;20045;-69
2023/09/26 04:44:18;;;;;;;0.10;0.10;;;;;;;11.58;83.50;101480.72;5000338;28;20045;-71
2023/09/26 04:46:45;;;;;;;0.10;0.10;;;;;;;11.57;83.13;101479.06;5029181;28;20069;-69
2023/09/26 04:49:13;;;;;;;0.10;0.10;;;;;;;11.66;83.25;101474.03;5040322;28;20044;-69
2023/09/26 04:51:39;;;;;;;0.20;0.20;;;;;;;11.68;83.08;101483.66;5019086;28;20049;-69
2023/09/26 04:54:06;;;;;;;0.15;0.15;;;;;;;11.63;83.30;101470.72;4993730;28;20047;-69
2023/09/26 04:56:32;;;;;;;0.20;0.20;;;;;;;11.72;83.35;101478.56;5022183;28;20143;-69
2023/09/26 04:58:58;;;;;;;0.10;0.10;;;;;;;11.75;83.20;101486.28;5012939;28;20572;-69
2023/09/26 05:01:26;;;;;;;0.20;0.20;;;;;;;11.80;82.96;101488.31;5012967;28;20068;-71
2023/09/26 05:03:52;;;;;;;;;;;;;;;11.81;82.97;101487.22;5038571;28;20052;-71
2023/09/26 05:06:20;;;;;;;0.10;0.10;;;;;;;11.87;83.25;101492.56;5002894;28;19924;-70
2023/09/26 05:08:47;;;;;;;0.20;0.20;;;;;;;11.92;83.12;101486.38;5012785;28;20048;-71
2023/09/26 05:11:14;;;;;;;0.20;0.20;;;;;;;12.03;82.89;101491.03;5015444;28;20159;-70
2023/09/26 05:13:41;;;;;;;0.10;0.10;;;;;;;12.15;82.14;101487.38;5039039;28;20428;-71
2023/09/26 05:16:08;;;;;;;0.20;0.20;;;;;;;12.27;81.48;101501.06;5037228;28;20467;-71
2023/09/26 05:18:34;;;;;;;0.10;0.10;;;;;;;12.35;81.16;101500.66;5039632;28;20051;-69
2023/09/26 05:21:05;;;;;;;0.20;0.20;;;;;;;12.35;80.76;101497.94;5003891;28;20314;-70
2023/09/26 05:23:47;;;;;;;0.10;0.10;;;;;;;12.39;79.91;101498.28;5078671;27;2163822;-71
2023/09/26 05:26:13;;;;;;;;;;;;;;;12.36;79.82;101494.09;5139762;27;20043;-70
2023/09/26 05:28:40;;;;;;;0.10;0.10;;;;;;;12.40;79.27;101502.69;5143125;27;19933;-71
2023/09/26 05:31:07;;;;;;;0.20;0.20;;;;;;;12.37;78.83;101489.47;5135974;27;20149;-69
2023/09/26 05:33:34;;;;;;;0.20;0.20;;;;;;;12.47;77.80;101503.34;5125282;27;20066;-72
2023/09/26 05:36:00;;;;;;;0.10;0.10;;;;;;;12.48;77.52;101500.38;5119693;27;20046;-72
2023/09/26 05:38:26;;;;;;;0.20;0.20;;;;;;;12.53;76.83;101501.53;5144599;27;20496;-71
2023/09/26 05:40:54;;;;;;;0.10;0.10;;;;;;;12.58;76.42;101491.50;5127179;27;20627;-70
2023/09/26 05:43:20;;;;;;;0.20;0.20;;;;;;;12.73;75.94;101499.19;5126787;27;20055;-70
2023/09/26 05:45:49;;;;;;;0.20;0.20;;;;;;;12.87;75.41;101496.94;5131822;27;20057;-69
2023/09/26 05:48:15;;;;;;;0.10;0.10;;;;;;;13.02;74.53;101495.53;5097027;27;20734;-69
2023/09/26 05:50:41;;;;;;;0.20;0.20;;;;;;;13.19;73.82;101498.28;5136953;27;20081;-71
2023/09/26 05:53:08;;;;;;;0.20;0.20;;;;;;;13.06;72.52;101458.22;5114686;27;20042;-70
2023/09/26 05:55:34;;;;;;;0.20;0.20;;;;;;;13.55;72.28;101501.56;5093162;27;20035;-70
2023/09/26 05:58:02;;;;;;;0.20;0.20;;;;;;;13.75;71.57;101486.44;5113708;27;20052;-70
2023/09/26 06:00:28;;;;;;;0.20;0.20;;;;;;;14.11;70.63;101503.34;5129408;27;20112;-70
2023/09/26 06:02:54;;;;;;;0.20;0.20;;;;;;;14.36;69.25;101498.41;5142835;27;20542;-70
2023/09/26 06:05:21;;;;;;;0.20;0.20;;;;;;;14.64;68.11;101500.06;5133696;27;20046;-70
2023/09/26 06:07:49;;;;;;;0.20;0.20;;;;;;;14.77;66.60;101500.78;5093200;27;20038;-71
2023/09/26 06:10:15;;;;;;;0.20;0.20;;;;;;;14.87;66.59;101503.59;5139291;27;20038;-70
2023/09/26 06:12:41;;;;;;;0.20;0.20;;;;;;;15.10;65.61;101504.34;5127117;27;20039;-71
2023/09/26 06:15:09;;;;;;;0.20;0.20;;;;;;;15.18;64.74;101492.81;5122887;27;20105;-70
2023/09/26 06:17:36;;;;;;;0.20;0.20;;;;;;;15.40;64.75;101511.97;5147459;27;20068;-70
2023/09/26 06:20:08;;;;;;;0.20;0.20;;;;;;;15.56;63.99;101504.66;5140824;27;20038;-70
2023/09/26 06:22:34;;;;;;;0.25;0.25;;;;;;;15.64;63.23;101510.75;5140355;27;20524;-70
2023/09/26 06:25:02;;;;;;;0.28;0.28;;;;;;;15.64;63.06;101505.22;5108492;27;20065;-71
2023/09/26 06:27:34;;;;;;;0.20;0.20;;;;;;;15.74;62.73;101492.31;5090127;28;20035;-70
2023/09/26 06:30:00;;;;;;;0.30;0.30;;;;;;;15.98;62.43;101494.66;5091897;27;20223;-71
2023/09/26 06:32:28;;;;;;;0.30;0.30;;;;;;;16.24;61.49;101492.00;5099442;28;20054;-70
2023/09/26 06:34:57;;;;;;;0.30;0.30;;;;;;;16.40;60.54;101492.03;5106317;27;20043;-69
2023/09/26 06:37:24;;;;;;;0.20;0.20;;;;;;;16.53;60.50;101493.41;5118275;27;20047;-71
2023/09/26 06:39:51;;;;;;;0.20;0.20;;;;;;;16.56;59.85;101496.47;5106179;27;20050;-70
2023/09/26 06:42:17;;;;;;;0.30;0.30;;;;;;;16.71;59.48;101500.34;5118711;27;20081;-69
2023/09/26 06:44:44;;;;;;;0.20;0.20;;;;;;;16.93;58.18;101510.28;5117273;27;20092;-70
2023/09/26 06:47:10;;;;;;;0.30;0.30;;;;;;;17.15;57.38;101491.50;5089165;27;20501;-72
2023/09/26 06:49:38;;;;;;;0.20;0.20;;;;;;;17.36;56.86;101499.78;5101399;27;20138;-70
2023/09/26 06:52:04;;;;;;;0.30;0.30;;;;;;;17.48;56.99;101496.72;5092488;27;20047;-70
2023/09/26 06:54:31;;;;;;;0.20;0.20;;;;;;;17.82;56.03;101487.75;5126703;27;20043;-71
2023/09/26 06:56:58;;;;;;;0.30;0.30;;;;;;;17.94;55.23;101495.72;5101415;27;20366;-69
2023/09/26 06:59:24;;;;;;;0.30;0.30;;;;;;;18.07;54.67;101499.00;5121017;27;20150;-70
2023/09/26 07:01:50;;;;;;;0.30;0.30;;;;;;;18.20;53.75;101501.16;5128467;27;20059;-71
2023/09/26 07:04:16;;;;;;;0.30;0.30;;;;;;;18.34;53.67;101503.31;5127067;27;20040;-71
2023/09/26 07:06:45;;;;;;;0.30;0.30;;;;;;;18.61;52.91;101499.25;5105807;28;20047;-70
2023/09/26 07:09:15;;;;;;;0.30;0.30;;;;;;;18.90;52.05;101495.72;5099584;27;20121;-71
2023/09/26 07:11:41;;;;;;;0.30;0.30;;;;;;;19.22;50.91;101500.69;5122024;27;20039;-70
2023/09/26 07:14:07;;;;;;;0.30;0.30;;;;;;;19.63;50.25;101490.28;5121363;27;20556;-70
2023/09/26 07:16:34;;;;;;;0.30;0.30;;;;;;;19.95;48.83;101491.59;5104015;28;20407;-71
2023/09/26 07:19:01;;;;;;;0.30;0.30;;;;;;;20.06;48.46;101479.25;5087854;28;20066;-70
2023/09/26 07:21:27;;;;;;;0.30;0.30;;;;;;;20.25;47.31;101484.78;5104249;27;20640;-71
2023/09/26 07:23:54;;;;;;;0.30;0.30;;;;;;;20.38;46.77;101485.16;5078300;28;20068;-71
2023/09/26 07:26:21;;;;;;;0.30;0.30;;;;;;;20.38;46.81;101487.94;5082305;28;20067;-72
2023/09/26 07:28:49;;;;;;;0.30;0.30;;;;;;;20.54;46.23;101489.34;5085965;28;20419;-71
2023/09/26 07:31:18;;;;;;;0.30;0.30;;;;;;;20.58;45.96;101481.25;5063188;28;20049;-71
2023/09/26 07:33:45;;;;;;;0.30;0.30;;;;;;;20.33;46.24;101474.16;5084003;28;20147;-70
2023/09/26 07:36:11;;;;;;;;;;;;;;;20.48;46.51;101486.97;5082036;28;20044;-70
2023/09/26 07:38:38;;;;;;;0.30;0.30;;;;;;;20.89;44.79;101480.78;5081942;28;20361;-72
2023/09/26 07:41:06;;;;;;;0.30;0.30;;;;;;;20.90;44.84;101481.59;5083235;28;20143;-70
2023/09/26 07:43:33;;;;;;;0.30;0.30;;;;;;;21.13;44.41;101484.53;5065008;28;20048;-71
2023/09/26 07:46:04;;;;;;;0.30;0.30;;;;;;;21.03;43.77;101491.13;5075134;28;20063;-69
2023/09/26 07:48:31;;;;;;;0.30;0.30;;;;;;;20.75;44.41;101491.78;5084229;28;20063;-69
2023/09/26 07:50:58;;;;;;;0.30;0.30;;;;;;;20.80;44.54;101477.88;5087611;28;20054;-70
2023/09/26 07:53:24;;;;;;;0.30;0.30;;;;;;;20.85;44.60;101482.53;5075679;28;20052;-70
2023/09/26 07:55:51;;;;;;;0.40;0.40;;;;;;;20.99;44.07;101473.38;5082346;28;20294;-69
2023/09/26 07:58:19;;;;;;;0.40;0.40;;;;;;;21.52;43.01;101474.88;5076009;28;20051;-69
2023/09/26 08:00:45;;;;;;;0.38;0.38;;;;;;;22.14;41.83;101484.75;5074580;28;20052;-70
2023/09/26 08:03:12;;;;;;;0.30;0.30;;;;;;;22.36;40.50;101483.97;5058344;28;20051;-70
2023/09/26 08:05:39;;;;;;;0.30;0.30;;;;;;;22.10;40.73;101481.78;5054185;28;20040;-70
2023/09/26 08:08:06;;;;;;;0.30;0.30;;;;;;;22.19;40.70;101473.50;5058281;28;20130;-70
2023/09/26 08:10:37;;;;;;;0.30;0.30;;;;;;;22.55;40.13;101473.81;5076139;28;20353;-69
2023/09/26 08:13:05;;;;;;;0.30;0.30;;;;;;;22.83;39.16;101482.06;5070205;28;20044;-71
2023/09/26 08:15:34;;;;;;;0.30;0.30;;;;;;;22.91;39.03;101470.97;5075479;28;20040;-69
2023/09/26 08:18:01;;;;;;;0.30;0.30;;;;;;;22.84;39.34;101476.16;5072035;28;20040;-69
2023/09/26 08:20:27;;;;;;;0.30;0.30;;;;;;;22.58;39.61;101478.75;5064870;28;20524;-69
2023/09/26 08:22:54;;;;;;;0.30;0.30;;;;;;;22.61;39.82;101478.13;5066620;28;20060;-70
2023/09/26 08:25:21;;;;;;;0.30;0.30;;;;;;;22.18;40.15;101477.44;5065550;28;20097;-70
2023/09/26 08:27:47;;;;;;;0.30;0.30;;;;;;;22.11;40.07;101477.03;5087132;28;20040;-70
2023/09/26 08:30:13;;;;;;;0.30;0.30;;;;;;;22.12;39.86;101453.59;5086413;28;20579;-69
2023/09/26 08:32:42;;;;;;;0.30;0.30;;;;;;;22.37;39.09;101468.91;5099724;28;20324;-70
2023/09/26 08:35:10;;;;;;;0.40;0.40;;;;;;;22.37;39.43;101465.31;5099893;28;20058;-70
2023/09/26 08:37:38;;;;;;;0.38;0.38;;;;;;;22.98;37.87;101450.16;5074130;28;20122;-70
2023/09/26 08:40:06;;;;;;;0.30;0.30;;;;;;;23.35;37.45;101446.09;5082941;28;20048;-71
2023/09/26 08:42:37;;;;;;;0.30;0.30;;;;;;;23.71;36.50;101447.03;5092658;28;20088;-72
2023/09/26 08:45:05;;;;;;;0.30;0.30;;;;;;;23.46;36.80;101438.25;5094307;28;20057;-71
2023/09/26 08:47:37;;;;;;;0.20;0.20;;;;;;;23.03;37.18;101448.06;5088726;28;20142;-70
2023/09/26 08:50:06;;;;;;;0.30;0.30;;;;;;;22.16;38.64;101435.13;5100653;28;20039;-70
2023/09/26 08:52:33;;;;;;;0.40;0.40;;;;;;;22.22;38.71;101450.59;5088101;28;20043;-70
2023/09/26 08:55:00;;;;;;;0.40;0.40;;;;;;;22.84;37.56;101448.28;5087611;28;20400;-70
2023/09/26 08:57:27;;;;;;;0.40;0.40;;;;;;;23.09;37.17;101441.19;5095649;28;20412;-71
2023/09/26 08:59:55;;;;;;;0.30;0.30;;;;;;;22.91;37.48;101442.25;5078070;28;20044;-70
2023/09/26 09:02:21;;;;;;;0.40;0.40;;;;;;;22.90;37.70;101441.44;5081534;28;20054;-70
2023/09/26 09:04:50;;;;;;;0.40;0.40;;;;;;;23.10;37.14;101450.38;5080453;28;20043;-69
2023/09/26 09:07:18;;;;;;;0.40;0.40;;;;;;;23.08;36.73;101447.91;5080677;28;20326;-70
2023/09/26 09:10:03;;;;;;;0.40;0.40;;;;;;;23.22;36.40;101447.00;5092023;28;20097;-71
2023/09/26 09:12:33;;;;;;;0.40;0.40;;;;;;;23.67;35.70;101443.25;5097589;28;20573;-70
2023/09/26 09:15:00;;;;;;;0.40;0.40;;;;;;;23.78;34.76;101440.97;5100465;28;20279;-71
2023/09/26 09:17:40;;;;;;;0.40;0.40;;;;;;;24.01;34.62;101436.06;5099524;28;20121;-70
2023/09/26 09:20:08;;;;;;;0.50;0.50;;;;;;;24.20;33.85;101437.75;5089684;28;20138;-70
2023/09/26 09:22:37;;;;;;;0.50;0.50;;;;;;;24.32;33.50;101446.31;5108118;28;20055;-70
2023/09/26 09:25:04;;;;;;;0.50;0.50;;;;;;;24.41;33.02;101437.91;5067200;27;20368;-70
2023/09/26 09:27:34;;;;;;;0.50;0.50;;;;;;;24.77;32.24;101435.94;5090677;28;20073;-70
2023/09/26 09:30:05;;;;;;;0.50;0.50;;;;;;;24.41;32.49;101431.50;5121587;28;20674;-70
2023/09/26 09:32:34;;;;;;;0.50;0.50;;;;;;;24.48;32.54;101429.84;5061301;28;20399;-70
2023/09/26 09:35:02;;;;;;;0.50;0.50;;;;;;;24.74;31.73;101434.56;5076857;28;20124;-69
2023/09/26 09:37:29;;;;;;;0.50;0.50;;;;;;;24.58;31.80;101428.66;5120379;28;20062;-71
2023/09/26 09:39:57;;;;;;;0.50;0.50;;;;;;;24.60;31.77;101420.81;5111682;28;20418;-71
2023/09/26 09:42:24;;;;;;;0.50;0.50;;;;;;;24.85;31.27;101426.69;5102859;28;20074;-70
2023/09/26 09:44:52;;;;;;;0.50;0.50;;;;;;;24.96;30.65;101420.72;5084724;28;20051;-71
2023/09/26 09:47:24;;;;;;;0.50;0.50;;;;;;;25.04;30.18;101426.28;5089260;28;20043;-71
2023/09/26 09:49:52;;;;;;;0.50;0.50;;;;;;;25.16;29.85;101422.78;5105131;28;20044;-70
2023/09/26 09:52:19;;;;;;;0.50;0.50;;;;;;;25.23;29.60;101425.06;5103907;28;20513;-70
2023/09/26 09:54:48;;;;;;;0.40;0.40;;;;;;;24.82;30.38;101418.97;5098689;28;20043;-70
2023/09/26 09:57:17;;;;;;;0.50;0.50;;;;;;;24.75;31.07;101430.63;5112802;28;20634;-70
2023/09/26 09:59:46;;;;;;;0.40;0.40;;;;;;;24.90;31.43;101426.53;5124222;28;20035;-70
2023/09/26 10:02:17;;;;;;;0.52;0.52;;;;;;;25.49;30.60;101410.16;5080242;27;20047;-69
2023/09/26 10:04:47;;;;;;;0.60;0.60;;;;;;;25.82;30.26;101409.44;5104380;28;20109;-71
2023/09/26 10:07:15;;;;;;;0.50;0.50;;;;;;;26.08;29.96;101410.41;5107437;28;20062;-70
2023/09/26 10:09:43;;;;;;;0.60;0.60;;;;;;;27.14;28.36;101408.19;5113453;27;20097;-69
2023/09/26 10:12:12;;;;;;;0.50;0.50;;;;;;;27.64;27.55;101404.59;5068905;28;20043;-70
2023/09/26 10:14:41;;;;;;;0.50;0.50;;;;;;;27.96;27.12;101407.56;5079572;27;20047;-69
2023/09/26 10:17:07;;;;;;;0.50;0.50;;;;;;;28.25;26.66;101411.22;5106249;27;20070;-69
2023/09/26 10:19:49;;;;;;;0.50;0.50;;;;;;;28.25;26.55;101412.03;5118177;27;20051;-70
2023/09/26 10:22:23;;;;;;;0.50;0.50;;;;;;;27.76;27.03;101392.50;5096876;27;20159;-69
2023/09/26 10:24:50;;;;;;;0.50;0.50;;;;;;;28.05;27.18;101390.53;5111561;27;20463;-70
2023/09/26 10:27:38;;;;;;;0.50;0.50;;;;;;;28.75;25.95;101396.91;5095730;28;20117;-70
2023/09/26 10:30:10;;;;;;;0.50;0.50;;;;;;;29.09;25.42;101392.56;5097217;27;20066;-69
2023/09/26 10:32:40;;;;;;;0.50;0.50;;;;;;;28.99;25.71;101388.31;5114798;27;20063;-70
2023/09/26 10:35:28;;;;;;;0.50;0.50;;;;;;;29.51;24.86;101379.09;5108634;27;20056;-69
2023/09/26 10:38:01;;;;;;;0.60;0.60;;;;;;;30.16;24.05;101383.31;5117225;27;20043;-70
2023/09/26 10:40:27;;;;;;;0.60;0.60;;;;;;;30.35;23.44;101385.31;5106336;27;20044;-69
2023/09/26 10:42:53;;;;;;;0.60;0.60;;;;;;;30.69;23.60;101385.56;5108356;27;20153;-70
2023/09/26 10:45:21;;;;;;;0.70;0.70;;;;;;;31.00;23.46;101382.88;5113386;27;20216;-70
2023/09/26 10:47:48;;;;;;;0.70;0.70;;;;;;;30.26;23.55;101379.91;5104166;28;20087;-71
2023/09/26 10:50:14;;;;;;;0.70;0.70;;;;;;;30.57;23.68;101371.59;5095182;27;20051;-70
2023/09/26 10:52:46;;;;;;;0.70;0.70;;;;;;;30.89;23.47;101377.03;5108423;27;20039;-70
2023/09/26 10:55:15;;;;;;;0.80;0.80;;;;;;;31.24;22.81;101370.38;5109204;27;20040;-71
2023/09/26 10:57:43;;;;;;;0.70;0.70;;;;;;;31.78;22.25;101366.69;5100233;28;20039;-71
2023/09/26 11:00:11;;;;;;;0.90;0.90;;;;;;;31.83;21.95;101369.19;5091415;28;20100;-71
2023/09/26 11:02:41;;;;;;;0.90;0.90;;;;;;;31.71;21.87;101356.09;5103224;28;20048;-70
2023/09/26 11:05:12;;;;;;;0.90;0.90;;;;;;;31.57;22.10;101350.25;5105371;27;20047;-69
2023/09/26 11:07:42;;;;;;;1.00;1.00;;;;;;;31.33;22.34;101350.31;5066686;28;20536;-71
2023/09/26 11:10:12;;;;;;;0.90;0.90;;;;;;;31.90;21.81;101365.63;5119854;27;20090;-70
2023/09/26 11:12:38;;;;;;;1.00;1.00;;;;;;;32.25;21.29;101362.41;5111742;27;20044;-71
2023/09/26 11:15:07;;;;;;;1.10;1.10;;;;;;;32.63;20.94;101358.75;5094264;27;20139;-70
2023/09/26 11:17:35;;;;;;;1.10;1.10;;;;;;;32.53;20.93;101352.59;5075909;28;20126;-71
2023/09/26 11:20:12;;;;;;;1.10;1.10;;;;;;;32.27;21.13;101349.91;5089713;27;20048;-70
2023/09/26 11:22:45;;;;;;;1.10;1.10;;;;;;;32.74;20.50;101347.53;5107772;27;20141;-70
2023/09/26 11:25:11;;;;;;;1.10;1.10;;;;;;;32.83;20.42;101348.03;5115646;27;20042;-70
2023/09/26 11:27:39;;;;;;;1.10;1.10;;;;;;;32.47;20.51;101340.00;5120817;27;20268;-69
2023/09/26 11:30:08;;;;;;;1.10;1.10;;;;;;;32.34;20.57;101345.16;5098604;28;20043;-70